Terminal Aerodrome Forecast
Issued by NWS

Home | Current Version | Previous Version | Text Only | Print | Product List | Glossary On
Versions: 1 2 3 4 5 6 7 8 9 10 11 12
900
FTUS45 KPSR 102320
TAFBLH
TAF
KBLH 102320Z 1100/1124 19005KT P6SM BKN250
     FM110900 35005KT P6SM SCT150 BKN200
     FM111600 VRB03KT P6SM SCT100 BKN250=

USA.gov is the U.S. government's official web portal to all federal, state and local government web resources and services.